Overview Statistics Trail Chart Weather Telemetry Raw packets
 

This is the latest recevied weather packets stored in our database for station/object W8KJR. If no packets are shown the sender has not sent any weather packets the latest 10 day(s).

<< 1 2 3 >>
Time Temp. Humidity Pressure Rain* Wind** Luminosity Snow
1788629916 27.78° C 72% 1013.4 hPa 0 mm - - -
1788629015 26.67° C 76% 1013.5 hPa 0 mm - - -
1788628116 26.11° C 78% 1013.7 hPa 1.27 mm - - -
1788627212 26.11° C 80% 1013.7 hPa 0 mm - - -
1788626308 25.56° C 82% 1013.7 hPa 0 mm - - -
1788625406 25° C 81% 1013.7 hPa 0 mm - - -
1788624504 25° C 82% 1013.8 hPa 0 mm - - -
1788623604 24.44° C 84% 1013.8 hPa 1.78 mm - - -
1788622701 24.44° C 84% 1013.9 hPa 0 mm - - -
1788621796 24.44° C 85% 1013.9 hPa 1.27 mm - - -
1788620893 23.33° C 88% 1013.3 hPa 0 mm - - -
1788619990 23.89° C 88% 1013.4 hPa 1.78 mm - - -
1788619090 22.78° C 90% 1013.4 hPa 0 mm - - -
1788618189 23.33° C 88% 1013.5 hPa 1.27 mm - - -
1788617297 22.78° C 91% 1013.1 hPa 0 mm - - -
1788616389 22.22° C 96% 1012.9 hPa 0 mm - - -
1788615488 21.67° C 99% 1013.3 hPa 1.27 mm - - -
1788614584 21.67° C 99% 1013.3 hPa 0 mm - - -
1788613681 20.56° C 99% 1013.2 hPa 1.78 mm - - -
1788612776 20.56° C 99% 1013.2 hPa 0 mm - - -
1788611875 20° C 99% 1013.4 hPa 0 mm - - -
1788610971 20° C 99% 1013.4 hPa 1.78 mm - - -
1788610067 19.44° C 99% 1013.1 hPa 0 mm - - -
1788609162 19.44° C 99% 1013.4 hPa 0 mm - - -
1788608260 19.44° C 99% 1012.9 hPa 0 mm - - -

* Rain latest hour (hover to see other rain measurements)
** Current wind speed in m/s (hover to see current wind gust speed)